Seattle, Washington
Current Conditions -  °F | °C
As of 3:53 PM on Monday 20 Oct 2014 (Local Time) from KBFI Reporting Station
Overcast Overcast  
Wind Chill: 64°   Ceiling: 6000
Heat Index: 64°   Visibility: 10mi
Dew Point: 53°   Wind: 12mph
Humidity: 67%   Direction: 170°S
Pressure: 29.76"   Gusts: NA
Location:  47.6°N, 122.32°W
Report Text: KBFI 202253Z 17010KT 10SM BKN060 BKN075 OVC100 18/12 A2976 RMK AO2 SLP076 T01780117
Loading
Personal Weather Stations






























Interactive Weather Map
Tropical Storm Tracking
New forecast layout! Learn more

10-Day Weather Forecast

Advertisements
Track Severe Weather on mobile